Portada
METAR-TAF:

METAR-TAF

Aeroports :

Recife, Pernambuco, Brasil

latitud: 08-08S, longitud: 034-55W, altitud: 19 m

Observació

L'informe es va fer fa 45 minuts, a les 10:00 UTC
Vent 6 kt del Est/Sud-Est
Temperatura 26°C
Humitat 74%
Pressió 1015 hPa
Visibilitat 10 km o més
Núvols disperses a una alçada de 2300 ft

METAR: SBRF 141000Z 12006KT 9999 SCT023 26/21 Q1015

Hora: 07:45 (10:45 UTC)

Pronòstic

L'informe es va fer fa 9 hores i 45 minuts, a les 01:00 UTC
Pronòstic vàlid del 14 a les 06 UTC al 15 a les 06 UTC
Vent 7 kt del Est
Visibilitat: 8000 m
Núvols disperses a una alçada de 2300 ft

TAF: SBRF 140100Z 1406/1506 09007KT 8000 SCT023 TN23/1409Z TX28/1414Z RMK PEA

Observacions i pronòstics meteorològics de més de 4000 aeroports (METAR i TAF).

Les estacions disponibles són els punts grocs i vermells al mapa.

Posi el ratolí al punt desitjat per veure el nom de l'estació.

Feu clic per veure les observacions i els pronòstics meteorològics.

Per canviar el mapa: feu clic els botons verds amb una creu de color negre per apropar; al botó verd amb un guió per allunyar la imatge; o en les fletxes verdes per a mapes adjacents.


METAR-TAF: